sensor_id;sensor_type;location;lat;lon;timestamp;P1;durP1;ratioP1;P2;durP2;ratioP2
65373;SDS011;52070;53.760;9.678;2023-06-14T00:01:42;10.27;;;3.53;;
65373;SDS011;52070;53.760;9.678;2023-06-14T00:04:11;7.03;;;2.90;;
65373;SDS011;52070;53.760;9.678;2023-06-14T00:06:39;8.80;;;3.08;;
65373;SDS011;52070;53.760;9.678;2023-06-14T00:09:07;7.57;;;2.97;;
65373;SDS011;52070;53.760;9.678;2023-06-14T00:11:35;5.55;;;2.97;;
65373;SDS011;52070;53.760;9.678;2023-06-14T00:14:01;6.72;;;2.90;;
65373;SDS011;52070;53.760;9.678;2023-06-14T00:16:29;7.57;;;3.40;;
65373;SDS011;52070;53.760;9.678;2023-06-14T00:18:58;8.75;;;3.05;;
65373;SDS011;52070;53.760;9.678;2023-06-14T00:21:25;8.18;;;2.97;;
65373;SDS011;52070;53.760;9.678;2023-06-14T00:23:55;7.43;;;2.88;;
65373;SDS011;52070;53.760;9.678;2023-06-14T00:26:22;5.75;;;3.00;;
65373;SDS011;52070;53.760;9.678;2023-06-14T00:28:51;8.35;;;3.10;;
65373;SDS011;52070;53.760;9.678;2023-06-14T00:31:18;7.07;;;3.10;;
65373;SDS011;52070;53.760;9.678;2023-06-14T00:33:46;9.90;;;3.10;;
65373;SDS011;52070;53.760;9.678;2023-06-14T00:36:13;8.50;;;3.00;;
65373;SDS011;52070;53.760;9.678;2023-06-14T00:38:40;6.93;;;2.85;;
65373;SDS011;52070;53.760;9.678;2023-06-14T00:41:08;9.05;;;3.05;;
65373;SDS011;52070;53.760;9.678;2023-06-14T00:43:35;11.27;;;3.03;;
65373;SDS011;52070;53.760;9.678;2023-06-14T00:46:02;11.15;;;3.03;;
65373;SDS011;52070;53.760;9.678;2023-06-14T00:48:29;8.43;;;3.22;;
65373;SDS011;52070;53.760;9.678;2023-06-14T00:50:57;8.65;;;3.20;;
65373;SDS011;52070;53.760;9.678;2023-06-14T00:53:29;8.50;;;3.03;;
65373;SDS011;52070;53.760;9.678;2023-06-14T00:55:59;6.95;;;2.90;;
65373;SDS011;52070;53.760;9.678;2023-06-14T00:58:28;8.52;;;2.72;;
65373;SDS011;52070;53.760;9.678;2023-06-14T01:00:55;4.03;;;2.83;;
65373;SDS011;52070;53.760;9.678;2023-06-14T01:03:23;6.82;;;2.83;;
65373;SDS011;52070;53.760;9.678;2023-06-14T01:05:51;6.82;;;3.15;;
65373;SDS011;52070;53.760;9.678;2023-06-14T01:08:39;8.88;;;3.10;;
65373;SDS011;52070;53.760;9.678;2023-06-14T01:11:14;6.80;;;3.30;;
65373;SDS011;52070;53.760;9.678;2023-06-14T01:13:46;5.57;;;3.28;;
65373;SDS011;52070;53.760;9.678;2023-06-14T01:16:13;6.93;;;2.85;;
65373;SDS011;52070;53.760;9.678;2023-06-14T01:18:40;9.07;;;2.92;;
65373;SDS011;52070;53.760;9.678;2023-06-14T01:21:19;5.38;;;3.25;;
65373;SDS011;52070;53.760;9.678;2023-06-14T01:23:49;7.45;;;3.65;;
65373;SDS011;52070;53.760;9.678;2023-06-14T01:26:18;4.18;;;2.83;;
65373;SDS011;52070;53.760;9.678;2023-06-14T01:28:46;6.57;;;2.95;;
65373;SDS011;52070;53.760;9.678;2023-06-14T01:31:16;11.95;;;3.70;;
65373;SDS011;52070;53.760;9.678;2023-06-14T01:33:45;8.77;;;3.58;;
65373;SDS011;52070;53.760;9.678;2023-06-14T01:36:12;7.22;;;3.13;;
65373;SDS011;52070;53.760;9.678;2023-06-14T01:38:40;8.70;;;3.10;;
65373;SDS011;52070;53.760;9.678;2023-06-14T01:41:11;8.27;;;3.33;;
65373;SDS011;52070;53.760;9.678;2023-06-14T01:43:38;10.90;;;3.63;;
65373;SDS011;52070;53.760;9.678;2023-06-14T01:46:06;7.38;;;3.60;;
65373;SDS011;52070;53.760;9.678;2023-06-14T01:48:35;9.80;;;3.55;;
65373;SDS011;52070;53.760;9.678;2023-06-14T01:51:02;10.00;;;3.92;;
65373;SDS011;52070;53.760;9.678;2023-06-14T01:53:29;7.18;;;3.65;;
65373;SDS011;52070;53.760;9.678;2023-06-14T01:55:56;11.95;;;3.70;;
65373;SDS011;52070;53.760;9.678;2023-06-14T01:58:27;11.25;;;4.38;;
65373;SDS011;52070;53.760;9.678;2023-06-14T02:00:54;8.95;;;3.70;;
65373;SDS011;52070;53.760;9.678;2023-06-14T02:03:22;7.78;;;3.63;;
65373;SDS011;52070;53.760;9.678;2023-06-14T02:05:49;7.70;;;3.75;;
65373;SDS011;52070;53.760;9.678;2023-06-14T02:08:16;8.40;;;3.97;;
65373;SDS011;52070;53.760;9.678;2023-06-14T02:10:43;9.55;;;3.88;;
65373;SDS011;52070;53.760;9.678;2023-06-14T02:13:10;11.00;;;4.00;;
65373;SDS011;52070;53.760;9.678;2023-06-14T02:15:39;7.72;;;3.80;;
65373;SDS011;52070;53.760;9.678;2023-06-14T02:18:09;6.25;;;3.53;;
65373;SDS011;52070;53.760;9.678;2023-06-14T02:20:37;11.38;;;3.97;;
65373;SDS011;52070;53.760;9.678;2023-06-14T02:23:03;9.82;;;4.88;;
65373;SDS011;52070;53.760;9.678;2023-06-14T02:25:33;8.68;;;3.90;;
65373;SDS011;52070;53.760;9.678;2023-06-14T02:28:00;10.35;;;4.85;;
65373;SDS011;52070;53.760;9.678;2023-06-14T02:30:27;14.27;;;4.25;;
65373;SDS011;52070;53.760;9.678;2023-06-14T02:32:55;10.88;;;4.53;;
65373;SDS011;52070;53.760;9.678;2023-06-14T02:35:22;8.73;;;4.55;;
65373;SDS011;52070;53.760;9.678;2023-06-14T02:37:51;8.43;;;4.63;;
65373;SDS011;52070;53.760;9.678;2023-06-14T02:40:18;9.07;;;4.32;;
65373;SDS011;52070;53.760;9.678;2023-06-14T02:42:46;11.05;;;4.43;;
65373;SDS011;52070;53.760;9.678;2023-06-14T02:45:13;12.88;;;4.82;;
65373;SDS011;52070;53.760;9.678;2023-06-14T02:47:40;11.85;;;4.40;;
65373;SDS011;52070;53.760;9.678;2023-06-14T02:50:09;9.60;;;4.80;;
65373;SDS011;52070;53.760;9.678;2023-06-14T02:52:36;10.70;;;4.57;;
65373;SDS011;52070;53.760;9.678;2023-06-14T02:55:03;11.77;;;4.40;;
65373;SDS011;52070;53.760;9.678;2023-06-14T02:57:31;7.03;;;4.40;;
65373;SDS011;52070;53.760;9.678;2023-06-14T02:59:58;11.23;;;4.50;;
65373;SDS011;52070;53.760;9.678;2023-06-14T03:02:26;9.52;;;4.47;;
65373;SDS011;52070;53.760;9.678;2023-06-14T03:04:52;10.70;;;4.80;;
65373;SDS011;52070;53.760;9.678;2023-06-14T03:07:21;10.18;;;4.78;;
65373;SDS011;52070;53.760;9.678;2023-06-14T03:09:48;9.32;;;4.47;;
65373;SDS011;52070;53.760;9.678;2023-06-14T03:12:15;11.95;;;4.50;;
65373;SDS011;52070;53.760;9.678;2023-06-14T03:14:42;11.40;;;4.65;;
65373;SDS011;52070;53.760;9.678;2023-06-14T03:17:12;8.15;;;4.43;;
65373;SDS011;52070;53.760;9.678;2023-06-14T03:19:39;10.18;;;5.30;;
65373;SDS011;52070;53.760;9.678;2023-06-14T03:22:06;8.32;;;4.70;;
65373;SDS011;52070;53.760;9.678;2023-06-14T03:24:35;10.50;;;4.88;;
65373;SDS011;52070;53.760;9.678;2023-06-14T03:27:03;12.45;;;4.75;;
65373;SDS011;52070;53.760;9.678;2023-06-14T03:29:30;13.00;;;5.13;;
65373;SDS011;52070;53.760;9.678;2023-06-14T03:31:57;12.27;;;5.13;;
65373;SDS011;52070;53.760;9.678;2023-06-14T03:34:25;9.75;;;4.90;;
65373;SDS011;52070;53.760;9.678;2023-06-14T03:36:52;12.23;;;5.65;;
65373;SDS011;52070;53.760;9.678;2023-06-14T03:39:19;13.43;;;5.43;;
65373;SDS011;52070;53.760;9.678;2023-06-14T03:41:48;11.52;;;4.88;;
65373;SDS011;52070;53.760;9.678;2023-06-14T03:44:15;14.68;;;5.30;;
65373;SDS011;52070;53.760;9.678;2023-06-14T03:46:44;18.45;;;5.50;;
65373;SDS011;52070;53.760;9.678;2023-06-14T03:49:11;10.65;;;5.30;;
65373;SDS011;52070;53.760;9.678;2023-06-14T03:51:38;16.35;;;6.13;;
65373;SDS011;52070;53.760;9.678;2023-06-14T03:54:06;14.13;;;5.38;;
65373;SDS011;52070;53.760;9.678;2023-06-14T03:56:33;11.45;;;5.47;;
65373;SDS011;52070;53.760;9.678;2023-06-14T03:59:02;11.52;;;5.25;;
65373;SDS011;52070;53.760;9.678;2023-06-14T04:01:29;9.75;;;5.10;;
65373;SDS011;52070;53.760;9.678;2023-06-14T04:03:56;14.23;;;5.20;;
65373;SDS011;52070;53.760;9.678;2023-06-14T04:06:24;15.38;;;5.72;;
65373;SDS011;52070;53.760;9.678;2023-06-14T04:08:58;12.65;;;5.70;;
65373;SDS011;52070;53.760;9.678;2023-06-14T04:11:29;14.20;;;6.55;;
65373;SDS011;52070;53.760;9.678;2023-06-14T04:13:57;13.73;;;5.90;;
65373;SDS011;52070;53.760;9.678;2023-06-14T04:16:26;16.63;;;5.05;;
65373;SDS011;52070;53.760;9.678;2023-06-14T04:18:54;10.65;;;5.63;;
65373;SDS011;52070;53.760;9.678;2023-06-14T04:21:21;13.05;;;5.13;;
65373;SDS011;52070;53.760;9.678;2023-06-14T04:23:49;12.23;;;5.50;;
65373;SDS011;52070;53.760;9.678;2023-06-14T04:26:18;11.38;;;5.47;;
65373;SDS011;52070;53.760;9.678;2023-06-14T04:28:46;11.80;;;5.75;;
65373;SDS011;52070;53.760;9.678;2023-06-14T04:31:13;13.85;;;5.95;;
65373;SDS011;52070;53.760;9.678;2023-06-14T04:33:43;16.15;;;5.47;;
65373;SDS011;52070;53.760;9.678;2023-06-14T04:36:12;15.02;;;5.75;;
65373;SDS011;52070;53.760;9.678;2023-06-14T04:38:39;16.38;;;5.65;;
65373;SDS011;52070;53.760;9.678;2023-06-14T04:41:06;13.32;;;6.10;;
65373;SDS011;52070;53.760;9.678;2023-06-14T04:43:37;13.82;;;4.97;;
65373;SDS011;52070;53.760;9.678;2023-06-14T04:46:04;12.38;;;5.63;;
65373;SDS011;52070;53.760;9.678;2023-06-14T04:48:35;10.80;;;5.40;;
65373;SDS011;52070;53.760;9.678;2023-06-14T04:51:03;11.60;;;5.85;;
65373;SDS011;52070;53.760;9.678;2023-06-14T04:53:30;10.30;;;5.07;;
65373;SDS011;52070;53.760;9.678;2023-06-14T04:55:57;17.55;;;5.40;;
65373;SDS011;52070;53.760;9.678;2023-06-14T04:58:24;14.63;;;5.93;;
65373;SDS011;52070;53.760;9.678;2023-06-14T05:00:51;12.18;;;5.35;;
65373;SDS011;52070;53.760;9.678;2023-06-14T05:03:18;11.65;;;5.18;;
65373;SDS011;52070;53.760;9.678;2023-06-14T05:05:46;12.27;;;5.80;;
65373;SDS011;52070;53.760;9.678;2023-06-14T05:08:14;9.52;;;4.63;;
65373;SDS011;52070;53.760;9.678;2023-06-14T05:10:41;12.85;;;5.57;;
65373;SDS011;52070;53.760;9.678;2023-06-14T05:13:08;12.77;;;5.03;;
65373;SDS011;52070;53.760;9.678;2023-06-14T05:15:36;11.32;;;4.80;;
65373;SDS011;52070;53.760;9.678;2023-06-14T05:18:03;11.00;;;4.80;;
65373;SDS011;52070;53.760;9.678;2023-06-14T05:20:29;11.18;;;5.25;;
65373;SDS011;52070;53.760;9.678;2023-06-14T05:23:00;11.35;;;4.78;;
65373;SDS011;52070;53.760;9.678;2023-06-14T05:25:28;8.95;;;5.00;;
65373;SDS011;52070;53.760;9.678;2023-06-14T05:27:55;10.07;;;4.68;;
65373;SDS011;52070;53.760;9.678;2023-06-14T05:30:22;9.57;;;4.55;;
65373;SDS011;52070;53.760;9.678;2023-06-14T05:32:49;11.60;;;4.95;;
65373;SDS011;52070;53.760;9.678;2023-06-14T05:35:18;9.88;;;5.20;;
65373;SDS011;52070;53.760;9.678;2023-06-14T05:37:47;10.80;;;4.70;;
65373;SDS011;52070;53.760;9.678;2023-06-14T05:40:14;16.75;;;4.78;;
65373;SDS011;52070;53.760;9.678;2023-06-14T05:42:43;9.10;;;4.25;;
65373;SDS011;52070;53.760;9.678;2023-06-14T05:45:10;11.02;;;4.28;;
65373;SDS011;52070;53.760;9.678;2023-06-14T05:47:37;8.50;;;4.07;;
65373;SDS011;52070;53.760;9.678;2023-06-14T05:50:05;11.25;;;4.05;;
65373;SDS011;52070;53.760;9.678;2023-06-14T05:52:33;8.65;;;4.50;;
65373;SDS011;52070;53.760;9.678;2023-06-14T05:55:00;10.93;;;4.15;;
65373;SDS011;52070;53.760;9.678;2023-06-14T05:57:27;7.55;;;3.95;;
65373;SDS011;52070;53.760;9.678;2023-06-14T05:59:56;11.93;;;3.45;;
65373;SDS011;52070;53.760;9.678;2023-06-14T06:02:23;11.77;;;3.97;;
65373;SDS011;52070;53.760;9.678;2023-06-14T06:04:49;8.20;;;3.60;;
65373;SDS011;52070;53.760;9.678;2023-06-14T06:07:16;9.52;;;3.60;;
65373;SDS011;52070;53.760;9.678;2023-06-14T06:09:43;10.68;;;3.33;;
65373;SDS011;52070;53.760;9.678;2023-06-14T06:12:10;9.55;;;3.47;;
65373;SDS011;52070;53.760;9.678;2023-06-14T06:14:37;9.82;;;3.97;;
65373;SDS011;52070;53.760;9.678;2023-06-14T06:17:06;13.75;;;3.20;;
65373;SDS011;52070;53.760;9.678;2023-06-14T06:19:33;7.03;;;3.45;;
65373;SDS011;52070;53.760;9.678;2023-06-14T06:21:59;9.20;;;3.38;;
65373;SDS011;52070;53.760;9.678;2023-06-14T06:24:26;7.65;;;3.30;;
65373;SDS011;52070;53.760;9.678;2023-06-14T06:26:53;8.57;;;3.08;;
65373;SDS011;52070;53.760;9.678;2023-06-14T06:29:21;7.95;;;3.33;;
65373;SDS011;52070;53.760;9.678;2023-06-14T06:31:47;9.35;;;3.53;;
65373;SDS011;52070;53.760;9.678;2023-06-14T06:34:16;7.63;;;2.97;;
65373;SDS011;52070;53.760;9.678;2023-06-14T06:36:43;8.40;;;3.03;;
65373;SDS011;52070;53.760;9.678;2023-06-14T06:39:10;6.75;;;2.70;;
65373;SDS011;52070;53.760;9.678;2023-06-14T06:41:37;6.28;;;2.70;;
65373;SDS011;52070;53.760;9.678;2023-06-14T06:44:05;8.73;;;2.83;;
65373;SDS011;52070;53.760;9.678;2023-06-14T06:46:32;7.43;;;3.00;;
65373;SDS011;52070;53.760;9.678;2023-06-14T06:49:00;5.28;;;2.47;;
65373;SDS011;52070;53.760;9.678;2023-06-14T06:51:28;8.25;;;2.80;;
65373;SDS011;52070;53.760;9.678;2023-06-14T06:53:55;6.90;;;2.72;;
65373;SDS011;52070;53.760;9.678;2023-06-14T06:56:22;4.45;;;2.45;;
65373;SDS011;52070;53.760;9.678;2023-06-14T06:58:49;6.38;;;2.90;;
65373;SDS011;52070;53.760;9.678;2023-06-14T07:01:17;6.30;;;2.75;;
65373;SDS011;52070;53.760;9.678;2023-06-14T07:03:45;6.03;;;2.70;;
65373;SDS011;52070;53.760;9.678;2023-06-14T07:06:12;5.93;;;2.60;;
65373;SDS011;52070;53.760;9.678;2023-06-14T07:08:41;7.93;;;2.72;;
65373;SDS011;52070;53.760;9.678;2023-06-14T07:11:08;7.18;;;2.58;;
65373;SDS011;52070;53.760;9.678;2023-06-14T07:13:35;5.38;;;2.35;;
65373;SDS011;52070;53.760;9.678;2023-06-14T07:16:04;5.85;;;2.55;;
65373;SDS011;52070;53.760;9.678;2023-06-14T07:18:31;8.00;;;2.47;;
65373;SDS011;52070;53.760;9.678;2023-06-14T07:20:58;7.43;;;2.45;;
65373;SDS011;52070;53.760;9.678;2023-06-14T07:23:25;5.72;;;2.40;;
65373;SDS011;52070;53.760;9.678;2023-06-14T07:25:53;5.80;;;2.60;;
65373;SDS011;52070;53.760;9.678;2023-06-14T07:28:20;4.72;;;2.22;;
65373;SDS011;52070;53.760;9.678;2023-06-14T07:30:47;4.80;;;2.03;;
65373;SDS011;52070;53.760;9.678;2023-06-14T07:33:14;3.10;;;1.85;;
65373;SDS011;52070;53.760;9.678;2023-06-14T07:35:41;4.68;;;2.08;;
65373;SDS011;52070;53.760;9.678;2023-06-14T07:38:09;5.00;;;2.20;;
65373;SDS011;52070;53.760;9.678;2023-06-14T07:40:36;4.72;;;2.10;;
65373;SDS011;52070;53.760;9.678;2023-06-14T07:43:04;8.95;;;2.67;;
65373;SDS011;52070;53.760;9.678;2023-06-14T07:45:31;6.30;;;2.38;;
65373;SDS011;52070;53.760;9.678;2023-06-14T07:47:58;5.35;;;2.20;;
65373;SDS011;52070;53.760;9.678;2023-06-14T07:50:25;5.38;;;2.40;;
65373;SDS011;52070;53.760;9.678;2023-06-14T07:52:52;5.00;;;2.00;;
65373;SDS011;52070;53.760;9.678;2023-06-14T07:55:18;10.05;;;2.17;;
65373;SDS011;52070;53.760;9.678;2023-06-14T07:57:45;6.40;;;2.13;;
65373;SDS011;52070;53.760;9.678;2023-06-14T08:00:15;5.28;;;2.03;;
65373;SDS011;52070;53.760;9.678;2023-06-14T08:05:10;5.88;;;2.00;;
65373;SDS011;52070;53.760;9.678;2023-06-14T08:07:38;4.93;;;2.40;;
65373;SDS011;52070;53.760;9.678;2023-06-14T08:10:05;5.18;;;2.10;;
65373;SDS011;52070;53.760;9.678;2023-06-14T08:12:33;6.15;;;2.03;;
65373;SDS011;52070;53.760;9.678;2023-06-14T08:15:00;4.43;;;2.10;;
65373;SDS011;52070;53.760;9.678;2023-06-14T08:17:29;6.63;;;2.08;;
65373;SDS011;52070;53.760;9.678;2023-06-14T08:19:56;7.95;;;2.30;;
65373;SDS011;52070;53.760;9.678;2023-06-14T08:22:23;9.60;;;2.50;;
65373;SDS011;52070;53.760;9.678;2023-06-14T08:24:53;3.45;;;2.35;;
65373;SDS011;52070;53.760;9.678;2023-06-14T08:27:20;5.85;;;2.22;;
65373;SDS011;52070;53.760;9.678;2023-06-14T08:29:48;6.18;;;2.20;;
65373;SDS011;52070;53.760;9.678;2023-06-14T08:32:15;4.28;;;1.95;;
65373;SDS011;52070;53.760;9.678;2023-06-14T08:34:45;6.43;;;2.10;;
65373;SDS011;52070;53.760;9.678;2023-06-14T08:37:13;5.38;;;2.60;;
65373;SDS011;52070;53.760;9.678;2023-06-14T08:39:40;7.35;;;2.22;;
65373;SDS011;52070;53.760;9.678;2023-06-14T08:42:07;4.72;;;2.53;;
65373;SDS011;52070;53.760;9.678;2023-06-14T08:44:36;12.80;;;2.58;;
65373;SDS011;52070;53.760;9.678;2023-06-14T08:47:03;5.85;;;2.20;;
65373;SDS011;52070;53.760;9.678;2023-06-14T08:49:34;6.47;;;2.05;;
65373;SDS011;52070;53.760;9.678;2023-06-14T08:52:05;7.68;;;2.20;;
65373;SDS011;52070;53.760;9.678;2023-06-14T08:54:36;6.85;;;2.17;;
65373;SDS011;52070;53.760;9.678;2023-06-14T08:57:09;5.45;;;2.40;;
65373;SDS011;52070;53.760;9.678;2023-06-14T08:59:38;5.03;;;2.45;;
65373;SDS011;52070;53.760;9.678;2023-06-14T09:02:12;6.85;;;2.30;;
65373;SDS011;52070;53.760;9.678;2023-06-14T09:04:40;6.43;;;2.28;;
65373;SDS011;52070;53.760;9.678;2023-06-14T09:07:08;9.88;;;3.05;;
65373;SDS011;52070;53.760;9.678;2023-06-14T09:09:38;5.22;;;2.30;;
65373;SDS011;52070;53.760;9.678;2023-06-14T09:12:06;4.25;;;2.40;;
65373;SDS011;52070;53.760;9.678;2023-06-14T09:17:05;3.88;;;2.22;;
65373;SDS011;52070;53.760;9.678;2023-06-14T09:19:32;6.80;;;2.50;;
65373;SDS011;52070;53.760;9.678;2023-06-14T09:22:00;5.32;;;2.40;;
65373;SDS011;52070;53.760;9.678;2023-06-14T09:24:28;7.85;;;2.30;;
65373;SDS011;52070;53.760;9.678;2023-06-14T09:26:55;5.03;;;2.53;;
65373;SDS011;52070;53.760;9.678;2023-06-14T09:29:23;6.05;;;2.33;;
65373;SDS011;52070;53.760;9.678;2023-06-14T09:31:52;3.53;;;2.40;;
65373;SDS011;52070;53.760;9.678;2023-06-14T09:34:21;6.90;;;2.75;;
65373;SDS011;52070;53.760;9.678;2023-06-14T09:36:49;7.93;;;2.25;;
65373;SDS011;52070;53.760;9.678;2023-06-14T09:39:17;3.38;;;2.30;;
65373;SDS011;52070;53.760;9.678;2023-06-14T09:41:45;5.43;;;2.22;;
65373;SDS011;52070;53.760;9.678;2023-06-14T09:44:12;3.33;;;2.10;;
65373;SDS011;52070;53.760;9.678;2023-06-14T09:46:39;5.43;;;2.10;;
65373;SDS011;52070;53.760;9.678;2023-06-14T09:49:06;6.63;;;2.30;;
65373;SDS011;52070;53.760;9.678;2023-06-14T09:51:34;5.32;;;2.50;;
65373;SDS011;52070;53.760;9.678;2023-06-14T09:54:03;4.80;;;2.40;;
65373;SDS011;52070;53.760;9.678;2023-06-14T09:56:33;4.05;;;1.90;;
65373;SDS011;52070;53.760;9.678;2023-06-14T09:59:04;5.55;;;2.30;;
65373;SDS011;52070;53.760;9.678;2023-06-14T10:01:33;7.10;;;2.40;;
65373;SDS011;52070;53.760;9.678;2023-06-14T10:04:02;6.75;;;2.40;;
65373;SDS011;52070;53.760;9.678;2023-06-14T10:06:31;9.40;;;2.22;;
65373;SDS011;52070;53.760;9.678;2023-06-14T10:09:03;4.28;;;2.20;;
65373;SDS011;52070;53.760;9.678;2023-06-14T10:11:31;5.07;;;2.20;;
65373;SDS011;52070;53.760;9.678;2023-06-14T10:13:58;6.55;;;2.30;;
65373;SDS011;52070;53.760;9.678;2023-06-14T10:16:28;4.63;;;2.20;;
65373;SDS011;52070;53.760;9.678;2023-06-14T10:19:00;3.30;;;2.20;;
65373;SDS011;52070;53.760;9.678;2023-06-14T10:21:38;6.20;;;2.30;;
65373;SDS011;52070;53.760;9.678;2023-06-14T10:24:10;5.03;;;2.20;;
65373;SDS011;52070;53.760;9.678;2023-06-14T10:26:49;7.95;;;2.40;;
65373;SDS011;52070;53.760;9.678;2023-06-14T10:29:18;4.88;;;2.35;;
65373;SDS011;52070;53.760;9.678;2023-06-14T10:31:47;6.35;;;2.10;;
65373;SDS011;52070;53.760;9.678;2023-06-14T10:34:22;4.97;;;2.25;;
65373;SDS011;52070;53.760;9.678;2023-06-14T10:39:32;6.75;;;2.35;;
65373;SDS011;52070;53.760;9.678;2023-06-14T10:42:04;2.85;;;2.05;;
65373;SDS011;52070;53.760;9.678;2023-06-14T10:44:33;5.55;;;2.40;;
65373;SDS011;52070;53.760;9.678;2023-06-14T10:47:07;4.88;;;2.10;;
65373;SDS011;52070;53.760;9.678;2023-06-14T10:49:37;3.38;;;2.25;;
65373;SDS011;52070;53.760;9.678;2023-06-14T10:52:08;7.03;;;2.47;;
65373;SDS011;52070;53.760;9.678;2023-06-14T10:57:35;4.53;;;2.30;;
65373;SDS011;52070;53.760;9.678;2023-06-14T11:00:02;5.18;;;2.10;;
65373;SDS011;52070;53.760;9.678;2023-06-14T11:02:59;5.93;;;2.53;;
65373;SDS011;52070;53.760;9.678;2023-06-14T11:05:50;6.13;;;2.63;;
65373;SDS011;52070;53.760;9.678;2023-06-14T11:08:22;6.20;;;2.75;;
65373;SDS011;52070;53.760;9.678;2023-06-14T11:11:22;6.50;;;2.50;;
65373;SDS011;52070;53.760;9.678;2023-06-14T11:13:50;4.90;;;2.10;;
65373;SDS011;52070;53.760;9.678;2023-06-14T11:16:17;3.83;;;2.30;;
65373;SDS011;52070;53.760;9.678;2023-06-14T11:18:46;5.38;;;2.53;;
65373;SDS011;52070;53.760;9.678;2023-06-14T11:21:17;5.07;;;2.20;;
65373;SDS011;52070;53.760;9.678;2023-06-14T11:26:24;7.35;;;2.33;;
65373;SDS011;52070;53.760;9.678;2023-06-14T11:28:54;4.70;;;2.03;;
65373;SDS011;52070;53.760;9.678;2023-06-14T11:31:22;5.72;;;2.63;;
65373;SDS011;52070;53.760;9.678;2023-06-14T11:33:51;6.05;;;2.10;;
65373;SDS011;52070;53.760;9.678;2023-06-14T11:36:20;9.82;;;2.22;;
65373;SDS011;52070;53.760;9.678;2023-06-14T11:38:47;4.50;;;2.25;;
65373;SDS011;52070;53.760;9.678;2023-06-14T11:41:14;5.18;;;2.50;;
65373;SDS011;52070;53.760;9.678;2023-06-14T11:43:41;6.90;;;2.40;;
65373;SDS011;52070;53.760;9.678;2023-06-14T11:46:12;7.72;;;2.28;;
65373;SDS011;52070;53.760;9.678;2023-06-14T11:48:41;5.93;;;2.70;;
65373;SDS011;52070;53.760;9.678;2023-06-14T11:51:10;6.85;;;2.20;;
65373;SDS011;52070;53.760;9.678;2023-06-14T11:53:37;4.72;;;2.10;;
65373;SDS011;52070;53.760;9.678;2023-06-14T11:56:04;3.90;;;1.98;;
65373;SDS011;52070;53.760;9.678;2023-06-14T11:58:32;6.22;;;2.00;;
65373;SDS011;52070;53.760;9.678;2023-06-14T12:00:59;3.30;;;2.00;;
65373;SDS011;52070;53.760;9.678;2023-06-14T12:03:26;3.20;;;2.20;;
65373;SDS011;52070;53.760;9.678;2023-06-14T12:06:04;4.50;;;2.00;;
65373;SDS011;52070;53.760;9.678;2023-06-14T12:08:34;7.07;;;2.10;;
65373;SDS011;52070;53.760;9.678;2023-06-14T12:11:04;9.80;;;2.20;;
65373;SDS011;52070;53.760;9.678;2023-06-14T12:13:31;6.10;;;2.10;;
65373;SDS011;52070;53.760;9.678;2023-06-14T12:15:58;4.68;;;2.17;;
65373;SDS011;52070;53.760;9.678;2023-06-14T12:18:32;6.63;;;2.40;;
65373;SDS011;52070;53.760;9.678;2023-06-14T12:21:00;3.83;;;1.77;;
65373;SDS011;52070;53.760;9.678;2023-06-14T12:23:41;4.68;;;1.83;;
65373;SDS011;52070;53.760;9.678;2023-06-14T12:26:09;3.15;;;1.50;;
65373;SDS011;52070;53.760;9.678;2023-06-14T12:28:39;6.30;;;2.10;;
65373;SDS011;52070;53.760;9.678;2023-06-14T12:31:06;7.90;;;2.10;;
65373;SDS011;52070;53.760;9.678;2023-06-14T12:33:34;2.70;;;2.03;;
65373;SDS011;52070;53.760;9.678;2023-06-14T12:36:02;6.93;;;1.90;;
65373;SDS011;52070;53.760;9.678;2023-06-14T12:38:30;4.65;;;1.88;;
65373;SDS011;52070;53.760;9.678;2023-06-14T12:40:58;3.05;;;2.10;;
65373;SDS011;52070;53.760;9.678;2023-06-14T12:43:25;5.07;;;1.67;;
65373;SDS011;52070;53.760;9.678;2023-06-14T12:45:52;6.30;;;2.10;;
65373;SDS011;52070;53.760;9.678;2023-06-14T12:48:19;5.80;;;2.00;;
65373;SDS011;52070;53.760;9.678;2023-06-14T12:50:47;3.25;;;1.80;;
65373;SDS011;52070;53.760;9.678;2023-06-14T12:53:14;5.90;;;1.80;;
65373;SDS011;52070;53.760;9.678;2023-06-14T12:55:42;4.03;;;1.90;;
65373;SDS011;52070;53.760;9.678;2023-06-14T12:58:10;3.33;;;1.60;;
65373;SDS011;52070;53.760;9.678;2023-06-14T13:00:39;5.30;;;1.98;;
65373;SDS011;52070;53.760;9.678;2023-06-14T13:03:06;3.65;;;2.00;;
65373;SDS011;52070;53.760;9.678;2023-06-14T13:05:33;5.90;;;2.08;;
65373;SDS011;52070;53.760;9.678;2023-06-14T13:08:00;9.60;;;2.00;;
65373;SDS011;52070;53.760;9.678;2023-06-14T13:10:27;5.53;;;1.73;;
65373;SDS011;52070;53.760;9.678;2023-06-14T13:12:54;5.70;;;1.80;;
65373;SDS011;52070;53.760;9.678;2023-06-14T13:15:24;1.77;;;1.60;;
65373;SDS011;52070;53.760;9.678;2023-06-14T13:17:51;4.70;;;1.60;;
65373;SDS011;52070;53.760;9.678;2023-06-14T13:20:19;7.90;;;1.60;;
65373;SDS011;52070;53.760;9.678;2023-06-14T13:22:45;1.92;;;1.60;;
65373;SDS011;52070;53.760;9.678;2023-06-14T13:25:12;5.07;;;1.70;;
65373;SDS011;52070;53.760;9.678;2023-06-14T13:27:39;5.68;;;1.90;;
65373;SDS011;52070;53.760;9.678;2023-06-14T13:30:07;2.30;;;1.50;;
65373;SDS011;52070;53.760;9.678;2023-06-14T13:32:36;3.25;;;1.50;;
65373;SDS011;52070;53.760;9.678;2023-06-14T13:35:03;4.43;;;1.67;;
65373;SDS011;52070;53.760;9.678;2023-06-14T13:37:31;6.55;;;1.77;;
65373;SDS011;52070;53.760;9.678;2023-06-14T13:39:58;4.95;;;1.70;;
65373;SDS011;52070;53.760;9.678;2023-06-14T13:42:25;5.43;;;1.80;;
65373;SDS011;52070;53.760;9.678;2023-06-14T13:44:52;5.35;;;1.95;;
65373;SDS011;52070;53.760;9.678;2023-06-14T13:47:19;5.65;;;1.85;;
65373;SDS011;52070;53.760;9.678;2023-06-14T13:49:47;4.72;;;1.70;;
65373;SDS011;52070;53.760;9.678;2023-06-14T13:52:14;4.20;;;1.73;;
65373;SDS011;52070;53.760;9.678;2023-06-14T13:54:41;3.53;;;1.88;;
65373;SDS011;52070;53.760;9.678;2023-06-14T13:57:09;4.80;;;1.60;;
65373;SDS011;52070;53.760;9.678;2023-06-14T13:59:38;5.20;;;1.90;;
65373;SDS011;52070;53.760;9.678;2023-06-14T14:02:05;6.60;;;1.95;;
65373;SDS011;52070;53.760;9.678;2023-06-14T14:04:32;6.90;;;2.13;;
65373;SDS011;52070;53.760;9.678;2023-06-14T14:07:01;3.92;;;1.70;;
65373;SDS011;52070;53.760;9.678;2023-06-14T14:09:29;3.58;;;1.80;;
65373;SDS011;52070;53.760;9.678;2023-06-14T14:11:56;5.40;;;1.70;;
65373;SDS011;52070;53.760;9.678;2023-06-14T14:14:23;5.18;;;1.45;;
65373;SDS011;52070;53.760;9.678;2023-06-14T14:16:50;3.17;;;1.50;;
65373;SDS011;52070;53.760;9.678;2023-06-14T14:19:18;4.72;;;1.70;;
65373;SDS011;52070;53.760;9.678;2023-06-14T14:21:45;6.35;;;1.48;;
65373;SDS011;52070;53.760;9.678;2023-06-14T14:24:14;2.47;;;1.35;;
65373;SDS011;52070;53.760;9.678;2023-06-14T14:26:41;4.10;;;1.70;;
65373;SDS011;52070;53.760;9.678;2023-06-14T14:29:08;3.83;;;1.45;;
65373;SDS011;52070;53.760;9.678;2023-06-14T14:31:36;3.03;;;1.65;;
65373;SDS011;52070;53.760;9.678;2023-06-14T14:34:03;9.25;;;1.80;;
65373;SDS011;52070;53.760;9.678;2023-06-14T14:36:31;4.40;;;1.50;;
65373;SDS011;52070;53.760;9.678;2023-06-14T14:38:58;7.32;;;1.95;;
65373;SDS011;52070;53.760;9.678;2023-06-14T14:41:27;3.80;;;1.83;;
65373;SDS011;52070;53.760;9.678;2023-06-14T14:43:54;3.42;;;1.75;;
65373;SDS011;52070;53.760;9.678;2023-06-14T14:46:21;5.45;;;1.58;;
65373;SDS011;52070;53.760;9.678;2023-06-14T14:48:49;3.38;;;1.63;;
65373;SDS011;52070;53.760;9.678;2023-06-14T14:51:16;1.63;;;1.50;;
65373;SDS011;52070;53.760;9.678;2023-06-14T14:53:43;4.75;;;1.60;;
65373;SDS011;52070;53.760;9.678;2023-06-14T14:56:09;4.40;;;1.75;;
65373;SDS011;52070;53.760;9.678;2023-06-14T14:58:38;2.67;;;1.38;;
65373;SDS011;52070;53.760;9.678;2023-06-14T15:01:05;4.10;;;1.50;;
65373;SDS011;52070;53.760;9.678;2023-06-14T15:03:32;1.92;;;1.45;;
65373;SDS011;52070;53.760;9.678;2023-06-14T15:05:59;6.22;;;1.50;;